Time;durP1;ratioP1;P1;durP2;ratioP2;P2;SDS_P1;SDS_P2;PMS_P1;PMS_P2;Temp;Humidity;BMP_temperature;BMP_pressure;BME280_temperature;BME280_humidity;BME280_pressure;Samples;Min_cycle;Max_cycle;Signal;HPM_P1;HPM_P2
2022/01/20 00:00:17;;;;;;;16.08;4.43;;;6.20;99.90;;;5.89;100.00;101738.91;5165994;28;20145;-68
2022/01/20 00:02:56;;;;;;;19.30;5.40;;;6.20;99.90;;;5.92;100.00;101749.50;5166070;28;20061;-68
2022/01/20 00:05:49;;;;;;;21.52;5.28;;;6.20;99.90;;;5.94;100.00;101742.75;5162259;28;20050;-67
2022/01/20 00:08:33;;;;;;;18.50;4.85;;;6.20;99.90;;;5.95;100.00;101749.72;5163479;28;20054;-68
2022/01/20 00:28:12;;;;;;;23.63;4.43;;;6.10;99.90;;;5.79;100.00;101762.34;5144897;28;20061;-68
2022/01/20 00:30:50;;;;;;;19.38;4.35;;;6.10;99.90;;;5.80;100.00;101758.97;5154719;28;20053;-68
2022/01/20 00:33:34;;;;;;;18.63;3.75;;;6.10;99.90;;;5.79;100.00;101752.00;5143961;28;20129;-68
2022/01/20 00:38:57;;;;;;;20.33;3.55;;;6.10;99.90;;;5.80;100.00;101758.97;5146769;28;20058;-68
2022/01/20 00:41:29;;;;;;;16.73;3.78;;;6.10;99.90;;;5.82;100.00;101763.47;5165147;28;20112;-68
2022/01/20 00:44:01;;;;;;;25.60;3.85;;;6.10;99.90;;;5.84;100.00;101771.34;5144888;28;20043;-67
2022/01/20 00:46:33;;;;;;;25.05;3.55;;;6.10;99.90;;;5.84;100.00;101761.88;5143937;28;20047;-68
2022/01/20 00:49:05;;;;;;;11.70;3.65;;;6.10;99.90;;;5.83;100.00;101769.53;5144944;28;20046;-68
2022/01/20 00:51:37;;;;;;;17.83;3.63;;;6.10;99.90;;;5.79;100.00;101767.53;5144496;28;20496;-68
2022/01/20 00:54:10;;;;;;;13.25;3.38;;;6.00;99.90;;;5.73;100.00;101774.06;5144344;28;20079;-68
2022/01/20 00:56:42;;;;;;;18.13;3.85;;;6.00;99.90;;;5.71;100.00;101780.81;5144320;28;20047;-67
2022/01/20 00:59:15;;;;;;;10.27;2.72;;;6.00;99.90;;;5.66;100.00;101776.13;5152913;28;20054;-69
2022/01/20 01:01:47;;;;;;;23.27;4.45;;;6.00;99.90;;;5.63;100.00;101778.50;5163733;28;20050;-68
2022/01/20 01:04:19;;;;;;;11.88;3.33;;;5.90;99.90;;;5.59;99.81;101785.13;5162118;28;20042;-68
2022/01/20 01:07:16;;;;;;;12.48;3.22;;;5.90;99.90;;;5.57;99.58;101789.31;5163916;28;20042;-68
2022/01/20 01:09:50;;;;;;;17.95;3.97;;;5.80;99.90;;;5.51;99.34;101790.56;5164500;28;20054;-68
2022/01/20 01:12:31;;;;;;;11.35;3.15;;;5.80;99.90;;;5.49;99.04;101793.06;5164719;28;20225;-68
2022/01/20 01:15:07;;;;;;;18.20;3.78;;;5.80;99.90;;;5.40;99.07;101797.56;5163275;28;20050;-67
2022/01/20 01:20:32;;;;;;;23.10;3.67;;;5.60;99.90;;;5.37;99.19;101802.53;5163975;28;20058;-68
2022/01/20 01:23:04;;;;;;;15.00;3.75;;;5.60;99.90;;;5.37;99.33;101799.94;5162351;28;20450;-67
2022/01/20 01:25:38;;;;;;;19.45;3.58;;;5.60;99.90;;;5.31;99.15;101791.75;5163231;28;20468;-67
2022/01/20 01:28:10;;;;;;;18.42;3.65;;;5.60;99.90;;;5.30;99.00;101795.13;5143803;28;20053;-67
2022/01/20 01:31:05;;;;;;;18.05;3.47;;;5.50;99.90;;;5.27;99.02;101800.06;5143873;28;20388;-67
2022/01/20 01:33:40;;;;;;;12.30;3.15;;;5.50;99.90;;;5.20;98.94;101809.06;5143279;28;20145;-68
2022/01/20 01:36:12;;;;;;;24.80;4.65;;;5.50;99.90;;;5.17;99.03;101807.16;5141908;28;20483;-69
2022/01/20 01:38:45;;;;;;;20.95;3.95;;;5.40;99.90;;;5.14;98.71;101804.34;5142719;28;20066;-68
2022/01/20 01:41:28;;;;;;;13.30;3.58;;;5.40;99.90;;;5.10;99.33;101802.34;5143344;28;20053;-68
2022/01/20 01:44:04;;;;;;;17.42;4.38;;;5.40;99.90;;;5.08;98.85;101797.81;5142937;28;20055;-68
2022/01/20 01:46:39;;;;;;;15.93;4.28;;;5.30;99.90;;;5.04;98.88;101799.31;5144212;28;20508;-68
2022/01/20 01:49:11;;;;;;;19.20;4.47;;;5.20;99.90;;;4.97;98.72;101789.31;5143003;28;20050;-67
2022/01/20 01:51:43;;;;;;;11.48;3.53;;;5.20;99.90;;;4.94;98.71;101788.16;5142793;28;20488;-67
2022/01/20 01:54:17;;;;;;;14.20;3.22;;;5.20;99.90;;;4.91;99.33;101794.03;5143297;28;20047;-67
2022/01/20 01:56:51;;;;;;;23.13;4.30;;;5.10;99.90;;;4.88;99.13;101797.25;5142519;28;20468;-68
2022/01/20 01:59:22;;;;;;;14.40;3.78;;;5.10;99.90;;;4.85;99.35;101793.56;5146027;28;21051;-69
2022/01/20 02:01:54;;;;;;;16.45;4.07;;;5.00;99.90;;;4.79;99.37;101798.28;5163040;28;20050;-69
2022/01/20 02:04:26;;;;;;;18.08;4.35;;;5.00;99.90;;;4.76;99.56;101800.63;5153303;28;20042;-67
2022/01/20 02:07:31;;;;;;;13.73;3.97;;;5.00;99.90;;;4.74;99.55;101797.03;5148835;28;20054;-67
2022/01/20 02:18:44;;;;;;;14.45;4.07;;;5.00;99.90;;;4.77;100.00;101799.88;5135636;28;20051;-68
2022/01/20 02:21:18;;;;;;;22.75;4.32;;;5.00;99.90;;;4.80;100.00;101782.00;5147627;28;20046;-67
2022/01/20 02:23:50;;;;;;;20.58;4.13;;;5.00;99.90;;;4.83;99.96;101787.41;5147225;28;20047;-67
2022/01/20 02:26:22;;;;;;;21.23;3.60;;;5.00;99.90;;;4.82;100.00;101790.75;5147448;28;20503;-68
2022/01/20 02:28:54;;;;;;;14.43;3.83;;;5.00;99.90;;;4.83;100.00;101792.56;5147604;28;20404;-68
2022/01/20 02:31:26;;;;;;;20.63;4.28;;;5.00;99.90;;;4.85;100.00;101803.91;5147123;28;20515;-68
2022/01/20 02:33:58;;;;;;;12.88;4.13;;;5.10;99.90;;;4.86;100.00;101801.44;5146779;28;20047;-67
2022/01/20 02:36:34;;;;;;;19.15;3.67;;;5.10;99.90;;;4.90;100.00;101797.41;5147101;28;20046;-68
2022/01/20 02:39:19;;;;;;;14.07;3.50;;;5.10;99.90;;;4.93;100.00;101802.78;5147280;28;20480;-68
2022/01/20 02:44:53;;;;;;;15.32;4.03;;;5.20;99.90;;;4.94;100.00;101801.09;5146575;28;20488;-67
2022/01/20 02:47:28;;;;;;;18.92;3.17;;;5.20;99.90;;;4.94;100.00;101796.81;5147408;28;20051;-68
2022/01/20 02:50:01;;;;;;;14.88;3.50;;;5.10;99.90;;;4.95;100.00;101797.72;5147020;28;20514;-68
2022/01/20 02:52:35;;;;;;;11.38;3.60;;;5.20;99.90;;;4.93;100.00;101802.78;5146806;28;20411;-68
2022/01/20 02:55:08;;;;;;;17.60;3.10;;;5.20;99.90;;;4.95;100.00;101789.97;5146842;28;20411;-68
2022/01/20 02:57:40;;;;;;;17.38;3.00;;;5.20;99.90;;;4.92;100.00;101790.66;5146766;28;20061;-68
2022/01/20 03:00:13;;;;;;;11.13;2.90;;;5.20;99.90;;;4.92;100.00;101788.06;5146942;28;20051;-68
2022/01/20 03:02:47;;;;;;;11.30;2.42;;;5.20;99.90;;;4.94;100.00;101770.97;5146765;28;20043;-69
2022/01/20 03:05:19;;;;;;;14.35;2.88;;;5.20;99.90;;;4.96;100.00;101776.28;5146504;28;20065;-68
2022/01/20 03:07:53;;;;;;;22.15;3.08;;;5.20;99.90;;;4.92;100.00;101782.91;5146458;28;20058;-67
2022/01/20 03:10:25;;;;;;;10.10;2.45;;;5.20;99.90;;;4.94;100.00;101776.16;5146917;28;20046;-68
2022/01/20 03:12:57;;;;;;;10.55;2.55;;;5.20;99.90;;;4.89;100.00;101782.69;5146769;28;20364;-68
2022/01/20 03:15:29;;;;;;;15.75;3.00;;;5.10;99.90;;;4.86;100.00;101780.75;5145546;28;20051;-67
2022/01/20 03:18:02;;;;;;;12.02;2.53;;;5.10;99.90;;;4.79;100.00;101783.69;5146827;28;20056;-67
2022/01/20 03:20:34;;;;;;;12.73;2.08;;;5.10;99.90;;;4.84;100.00;101782.34;5146649;28;20051;-67
2022/01/20 03:23:07;;;;;;;16.05;3.28;;;5.10;99.90;;;4.82;100.00;101783.91;5146269;28;20407;-68
2022/01/20 03:25:39;;;;;;;10.80;2.05;;;5.10;99.90;;;4.85;100.00;101772.91;5145148;28;20130;-69
2022/01/20 03:28:11;;;;;;;15.52;3.03;;;5.10;99.90;;;4.83;100.00;101779.66;5146163;28;20051;-69
2022/01/20 03:30:44;;;;;;;12.88;2.72;;;5.10;99.90;;;4.84;100.00;101773.69;5146045;28;20047;-69
2022/01/20 03:33:16;;;;;;;13.95;2.58;;;5.10;99.90;;;4.85;100.00;101778.97;5146117;28;20142;-68
2022/01/20 03:35:48;;;;;;;17.98;2.47;;;5.10;99.90;;;4.84;100.00;101778.88;5145952;28;20077;-68
2022/01/20 03:38:22;;;;;;;17.35;3.25;;;5.10;99.90;;;4.84;100.00;101776.28;5146119;28;20055;-69
2022/01/20 03:40:54;;;;;;;12.02;2.15;;;5.10;99.90;;;4.81;99.78;101778.63;5146029;28;20051;-68
2022/01/20 03:43:26;;;;;;;12.77;2.50;;;5.10;99.90;;;4.73;99.92;101766.84;5146283;28;20050;-68
2022/01/20 03:46:00;;;;;;;19.67;3.28;;;5.00;99.90;;;4.70;99.96;101782.13;5145775;28;20046;-68
2022/01/20 03:48:38;;;;;;;16.63;2.80;;;5.00;99.90;;;4.76;99.13;101774.78;5145900;28;20129;-68
2022/01/20 03:51:10;;;;;;;15.35;2.65;;;5.00;99.90;;;4.70;99.34;101764.94;5145825;28;20051;-68
2022/01/20 03:53:43;;;;;;;11.25;1.95;;;5.00;99.90;;;4.60;99.63;101773.69;5146046;28;20139;-68
2022/01/20 03:56:16;;;;;;;18.35;2.50;;;4.90;99.90;;;4.64;99.86;101782.56;5145795;28;20050;-68
2022/01/20 03:58:49;;;;;;;12.98;2.03;;;4.90;99.90;;;4.67;99.49;101771.53;5145555;28;20051;-67
2022/01/20 04:01:22;;;;;;;17.45;2.85;;;4.90;99.90;;;4.67;99.44;101771.53;5145260;28;20482;-68
2022/01/20 04:03:54;;;;;;;11.55;1.90;;;4.90;99.90;;;4.70;99.04;101756.28;5145340;28;20047;-67
2022/01/20 04:06:28;;;;;;;13.00;2.13;;;4.90;99.90;;;4.70;98.86;101743.38;5145401;28;20051;-68
2022/01/20 04:09:01;;;;;;;19.42;2.33;;;4.90;99.90;;;4.63;99.13;101750.69;5145305;28;20057;-67
2022/01/20 04:11:33;;;;;;;8.73;2.00;;;4.90;99.90;;;4.63;99.56;101748.09;5145826;28;20077;-68
2022/01/20 04:14:05;;;;;;;9.60;2.08;;;4.90;99.90;;;4.63;99.35;101749.78;5145341;28;20422;-67
2022/01/20 04:16:52;;;;;;;11.13;2.60;;;4.90;99.90;;;4.66;99.71;101746.50;5145448;28;20046;-67
2022/01/20 04:19:26;;;;;;;16.23;2.50;;;4.90;99.90;;;4.66;99.42;101751.69;5145397;28;20078;-68
2022/01/20 04:21:59;;;;;;;16.05;2.22;;;4.90;99.90;;;4.67;99.56;101745.72;5145067;28;20496;-68
2022/01/20 04:24:33;;;;;;;6.35;1.33;;;5.00;99.90;;;4.70;99.60;101748.53;5145081;28;20603;-67
2022/01/20 04:27:06;;;;;;;17.85;2.97;;;5.00;99.90;;;4.72;99.49;101753.03;5145411;28;20055;-67
2022/01/20 04:29:38;;;;;;;11.07;1.80;;;5.00;99.90;;;4.74;99.10;101747.97;5145272;28;20057;-68
2022/01/20 04:32:10;;;;;;;8.00;1.83;;;5.00;99.90;;;4.74;98.73;101751.44;5145436;28;20078;-69
2022/01/20 04:34:43;;;;;;;9.95;1.80;;;5.00;99.90;;;4.73;98.68;101748.75;5144338;28;20051;-67
2022/01/20 04:37:15;;;;;;;12.80;1.85;;;5.00;99.90;;;4.72;98.79;101746.97;5144558;28;20098;-68
2022/01/20 04:39:50;;;;;;;5.40;1.70;;;5.00;99.90;;;4.70;98.29;101746.84;5144644;28;20047;-68
2022/01/20 04:42:25;;;;;;;8.00;1.45;;;5.00;99.90;;;4.72;98.40;101750.44;5144690;28;20266;-68
2022/01/20 04:45:01;;;;;;;8.25;1.90;;;5.00;99.90;;;4.70;98.64;101753.72;5144206;28;20043;-68
2022/01/20 04:47:41;;;;;;;10.55;2.05;;;5.00;99.90;;;4.72;98.84;101750.44;5145163;28;20145;-68
2022/01/20 04:58:51;;;;;;;13.50;1.92;;;5.00;99.90;;;4.71;98.32;101761.56;5144743;28;20051;-68
2022/01/20 05:01:23;;;;;;;11.07;1.80;;;5.00;99.90;;;4.71;98.32;101752.91;5144518;28;20050;-68
2022/01/20 05:03:56;;;;;;;12.23;2.30;;;5.00;99.90;;;4.71;98.59;101758.97;5143848;28;20059;-68
2022/01/20 05:06:28;;;;;;;11.32;2.40;;;5.00;99.90;;;4.73;98.83;101764.25;5144522;28;20133;-68
2022/01/20 05:09:00;;;;;;;16.70;2.53;;;5.00;99.90;;;4.76;98.73;101767.97;5144691;28;20495;-67
2022/01/20 05:11:36;;;;;;;9.55;2.47;;;5.00;99.90;;;4.78;98.31;101770.66;5144140;28;20051;-68
2022/01/20 05:14:08;;;;;;;6.90;2.13;;;5.00;99.90;;;4.81;98.43;101770.88;5143875;28;20046;-69
2022/01/20 05:16:40;;;;;;;6.80;1.70;;;5.00;99.90;;;4.80;98.38;101779.41;5144586;28;20043;-67
2022/01/20 05:19:12;;;;;;;8.60;2.22;;;5.10;99.90;;;4.79;98.86;101778.53;5144391;28;20051;-68
2022/01/20 05:21:44;;;;;;;10.63;2.10;;;5.10;99.90;;;4.81;98.45;101776.03;5144539;28;20077;-67
2022/01/20 05:24:16;;;;;;;11.68;2.08;;;5.10;99.90;;;4.82;98.32;101785.59;5143704;28;20407;-69
2022/01/20 05:26:50;;;;;;;4.45;1.38;;;5.10;99.90;;;4.83;98.13;101777.06;5144153;28;20101;-68
2022/01/20 05:29:23;;;;;;;12.70;2.30;;;5.10;99.90;;;4.86;98.29;101779.88;5144450;28;20042;-68
2022/01/20 05:31:55;;;;;;;11.88;2.60;;;5.10;99.90;;;4.88;98.06;101763.69;5304583;23;20046;-70
2022/01/20 05:34:27;;;;;;;10.98;2.45;;;5.10;99.90;;;4.93;97.92;101771.78;5163625;28;20050;-70
2022/01/20 05:36:59;;;;;;;8.98;1.90;;;5.10;99.90;;;4.84;98.09;101777.19;5164142;28;20415;-70
2022/01/20 05:39:31;;;;;;;10.75;1.95;;;5.10;99.90;;;4.86;97.61;101764.38;5164248;28;20054;-71
2022/01/20 05:42:06;;;;;;;8.98;1.70;;;5.10;99.90;;;4.94;97.10;101767.50;5163996;28;20054;-70
2022/01/20 05:44:38;;;;;;;9.05;2.08;;;5.20;99.90;;;4.90;97.81;101761.22;5164145;28;20050;-70
2022/01/20 05:47:26;;;;;;;7.22;1.52;;;5.10;99.90;;;4.87;97.39;101766.16;5164376;28;20570;-70
2022/01/20 05:50:16;;;;;;;10.65;1.98;;;5.10;99.90;;;4.86;97.92;101764.38;5166844;28;20101;-70
2022/01/20 05:52:48;;;;;;;7.85;1.65;;;5.10;99.90;;;4.92;97.73;101763.91;5168795;28;20046;-70
2022/01/20 05:55:22;;;;;;;9.20;1.95;;;5.10;99.90;;;4.92;97.48;101763.91;5168525;28;20053;-70
2022/01/20 05:57:55;;;;;;;9.20;2.13;;;5.20;99.90;;;4.94;97.57;101767.50;5167983;28;20081;-70
2022/01/20 06:00:28;;;;;;;7.03;1.75;;;5.20;99.90;;;4.94;97.82;101773.56;5168228;28;20058;-70
2022/01/20 06:05:50;;;;;;;10.73;2.45;;;5.20;99.90;;;4.95;98.24;101785.69;5167924;28;20052;-70
2022/01/20 06:08:22;;;;;;;8.02;1.92;;;5.20;99.90;;;4.96;97.77;101787.50;5167859;28;20048;-70
2022/01/20 06:10:54;;;;;;;11.48;2.35;;;5.20;99.90;;;4.95;97.53;101789.97;5167779;28;20046;-70
2022/01/20 06:13:28;;;;;;;9.85;1.83;;;5.20;99.90;;;4.93;97.98;101787.28;5167833;28;20050;-69
2022/01/20 06:16:01;;;;;;;8.18;2.15;;;5.20;99.90;;;4.89;97.75;101801.69;5167617;28;20046;-69
2022/01/20 06:18:34;;;;;;;6.22;2.22;;;5.20;99.90;;;4.90;97.54;101797.41;5167740;28;20053;-70
2022/01/20 06:21:06;;;;;;;11.98;2.33;;;5.20;99.90;;;4.96;97.22;101791.78;5167567;28;20065;-70
2022/01/20 06:23:40;;;;;;;7.22;2.28;;;5.20;99.90;;;4.92;96.41;101795.81;5167569;28;20089;-70
2022/01/20 06:26:12;;;;;;;7.82;1.85;;;5.20;99.90;;;4.95;96.29;101798.59;5167571;28;20081;-70
2022/01/20 06:28:45;;;;;;;4.95;1.60;;;5.30;99.90;;;4.90;95.72;101798.28;5167579;28;20046;-72
2022/01/20 06:31:17;;;;;;;5.47;1.48;;;5.30;99.90;;;4.89;95.95;101805.94;5167264;28;20054;-71
2022/01/20 06:33:49;;;;;;;3.22;1.05;;;5.30;99.90;;;4.88;96.05;101814.44;5167801;28;20054;-71
2022/01/20 06:36:21;;;;;;;9.40;1.42;;;5.30;99.90;;;4.90;96.10;101829.31;5167353;28;20046;-70
2022/01/20 06:38:54;;;;;;;7.07;1.60;;;5.20;99.90;;;4.90;96.36;101823.25;5167509;28;20086;-70
2022/01/20 06:41:27;;;;;;;4.38;1.17;;;5.20;99.90;;;4.91;96.04;101825.03;5167343;28;20046;-71
2022/01/20 06:44:01;;;;;;;5.53;1.50;;;5.20;99.90;;;4.85;95.99;101824.56;5167298;28;20518;-70
2022/01/20 06:46:33;;;;;;;4.45;1.40;;;5.20;99.90;;;4.81;96.36;101844.09;5167067;28;20043;-70
2022/01/20 06:49:05;;;;;;;5.68;1.58;;;5.10;99.90;;;4.74;95.58;101866.78;5167362;28;20418;-70
2022/01/20 06:51:38;;;;;;;9.65;1.90;;;5.10;99.90;;;4.76;95.83;101862.63;5167328;28;20245;-70
2022/01/20 06:54:10;;;;;;;3.33;1.52;;;5.10;99.90;;;4.76;95.68;101875.53;5167000;28;20495;-70
2022/01/20 06:56:42;;;;;;;17.65;2.60;;;5.10;99.90;;;4.71;95.83;101876.91;5167060;28;20046;-70
2022/01/20 06:59:17;;;;;;;5.93;1.73;;;5.10;99.90;;;4.75;95.63;101891.84;5167356;28;20050;-71
2022/01/20 07:01:50;;;;;;;3.50;1.35;;;5.10;99.90;;;4.74;95.19;101884.88;5166042;28;20060;-71
2022/01/20 07:04:22;;;;;;;3.72;1.23;;;5.10;99.90;;;4.75;95.10;101894.41;5166257;28;20440;-71
2022/01/20 07:06:54;;;;;;;5.88;1.35;;;5.10;99.90;;;4.68;94.66;101897.31;5166653;28;20056;-71
2022/01/20 07:09:26;;;;;;;7.15;1.63;;;5.00;99.90;;;4.69;94.93;101904.28;5166854;28;20563;-71
2022/01/20 07:11:58;;;;;;;1.80;1.13;;;5.00;99.90;;;4.69;95.10;101896.53;5166716;28;20057;-71
2022/01/20 07:14:32;;;;;;;5.50;1.38;;;5.10;99.90;;;4.65;94.46;101902.28;5166093;28;20050;-70
2022/01/20 07:17:05;;;;;;;12.07;1.77;;;5.10;99.90;;;4.61;94.29;101912.34;5166436;28;20480;-70
2022/01/20 07:19:37;;;;;;;6.93;1.77;;;5.00;99.90;;;4.60;93.84;101905.38;5166829;28;20042;-71
2022/01/20 07:22:09;;;;;;;3.30;1.23;;;5.00;99.90;;;4.63;93.45;101920.25;5166620;28;20050;-71
2022/01/20 07:24:41;;;;;;;5.00;1.25;;;5.00;99.90;;;4.61;93.44;101925.25;5166101;28;20057;-71
2022/01/20 07:27:13;;;;;;;9.25;1.90;;;5.00;99.90;;;4.60;93.04;101927.75;5166327;28;20406;-71
2022/01/20 07:29:46;;;;;;;8.05;1.67;;;5.00;99.90;;;4.59;92.76;101932.00;5166789;28;20471;-70
2022/01/20 07:32:18;;;;;;;9.32;1.20;;;5.00;99.90;;;4.60;92.56;101935.47;5166397;28;20054;-70
2022/01/20 07:34:50;;;;;;;6.50;1.38;;;5.00;99.90;;;4.61;91.66;101952.78;5166025;28;20065;-71
2022/01/20 07:37:22;;;;;;;4.13;1.13;;;5.00;99.90;;;4.59;91.72;101956.94;5166166;28;20133;-70
2022/01/20 07:39:55;;;;;;;6.68;1.40;;;5.00;99.90;;;4.58;91.58;101968.94;5165923;28;20050;-70
2022/01/20 07:42:27;;;;;;;5.53;1.23;;;5.00;99.90;;;4.56;91.08;101975.69;5166413;28;20057;-71
2022/01/20 07:45:00;;;;;;;8.80;1.23;;;5.00;99.90;;;4.56;91.41;101970.53;5165752;28;20050;-70
2022/01/20 07:47:34;;;;;;;6.03;1.67;;;5.00;99.90;;;4.59;91.47;101981.06;5165954;28;20047;-71
2022/01/20 07:50:07;;;;;;;6.78;1.52;;;5.00;99.90;;;4.62;91.71;101991.63;5165969;28;20061;-71
2022/01/20 07:52:39;;;;;;;6.68;1.45;;;5.00;99.90;;;4.67;91.74;101988.50;5165958;28;20053;-71
2022/01/20 07:55:12;;;;;;;10.10;1.70;;;5.00;99.90;;;4.66;91.97;101991.88;5165227;28;20053;-70
2022/01/20 07:57:44;;;;;;;4.45;1.50;;;5.00;99.90;;;4.69;92.38;101997.28;5165795;28;20060;-71
2022/01/20 08:00:17;;;;;;;6.60;1.63;;;5.10;99.90;;;4.67;91.88;101998.84;5165863;28;20054;-70
2022/01/20 08:02:50;;;;;;;7.88;1.63;;;5.00;99.90;;;4.65;92.94;101997.84;5165529;28;20050;-70
2022/01/20 08:05:22;;;;;;;5.97;1.55;;;5.10;99.90;;;4.69;92.51;101999.84;5165350;28;20133;-71
2022/01/20 08:07:54;;;;;;;7.82;1.45;;;5.00;99.90;;;4.69;93.41;101992.09;5165632;28;20507;-71
2022/01/20 08:10:26;;;;;;;9.30;1.42;;;5.00;99.90;;;4.67;92.90;101994.59;5165611;28;20076;-71
2022/01/20 08:12:58;;;;;;;8.23;1.80;;;5.00;99.90;;;4.74;92.94;102001.13;5165373;28;20058;-71
2022/01/20 08:15:31;;;;;;;6.57;1.83;;;5.10;99.90;;;4.73;92.33;101999.31;5164830;28;20624;-71
2022/01/20 08:18:06;;;;;;;12.90;1.98;;;5.10;99.90;;;4.76;92.21;101989.22;5165585;28;20509;-71
2022/01/20 08:20:38;;;;;;;6.03;2.03;;;5.10;99.90;;;4.79;92.02;101999.78;5165867;28;20526;-71
2022/01/20 08:23:10;;;;;;;5.55;1.83;;;5.10;99.90;;;4.80;91.57;101997.31;5165831;28;20049;-70
2022/01/20 08:25:42;;;;;;;10.02;1.83;;;5.10;99.90;;;4.79;91.63;101999.78;5165039;28;20046;-73
2022/01/20 08:28:17;;;;;;;7.20;1.42;;;5.20;99.90;;;4.82;90.78;101998.34;5166128;28;20050;-72
2022/01/20 08:30:51;;;;;;;9.70;2.13;;;5.20;99.90;;;4.84;90.21;101998.47;5166047;28;20145;-71
2022/01/20 08:33:23;;;;;;;7.07;1.50;;;5.20;99.90;;;4.89;89.92;102007.50;5166067;28;20046;-71
2022/01/20 08:35:55;;;;;;;9.18;1.55;;;5.30;99.90;;;4.94;90.18;102016.47;5165292;28;20056;-71
2022/01/20 08:38:27;;;;;;;11.43;2.38;;;5.20;99.90;;;4.94;89.54;102016.47;5165692;28;20046;-70
2022/01/20 08:40:59;;;;;;;6.80;1.52;;;5.30;99.90;;;4.97;89.21;102016.72;5166307;28;20046;-72
2022/01/20 08:43:38;;;;;;;8.40;2.17;;;5.30;99.90;;;4.97;88.64;102016.72;5165845;28;20064;-72
2022/01/20 08:46:13;;;;;;;10.25;1.80;;;5.30;99.90;;;4.96;87.67;102021.78;5165458;28;20047;-71
2022/01/20 08:48:45;;;;;;;10.05;1.40;;;5.30;99.90;;;4.95;87.93;102017.38;5165541;28;20097;-71
2022/01/20 08:51:17;;;;;;;7.95;1.75;;;5.30;99.90;;;4.98;87.29;102034.03;5165896;28;20415;-72
2022/01/20 08:53:49;;;;;;;8.10;1.38;;;5.30;99.90;;;4.99;87.10;102032.34;5165331;28;20093;-71
2022/01/20 08:56:21;;;;;;;7.97;1.23;;;5.30;99.90;;;5.06;86.63;102032.91;5165621;28;20076;-72
2022/01/20 08:58:53;;;;;;;9.57;1.52;;;5.40;99.90;;;5.16;85.81;102050.94;5165517;28;20415;-73
2022/01/20 09:01:26;;;;;;;9.77;1.38;;;5.40;99.90;;;5.25;85.54;102044.66;5165508;28;20517;-72
2022/01/20 09:03:58;;;;;;;8.15;1.73;;;5.50;99.90;;;5.26;84.58;102056.81;5164972;28;20051;-71
2022/01/20 09:06:31;;;;;;;6.20;1.40;;;5.50;99.90;;;5.27;84.13;102063.75;5165406;28;20392;-72
2022/01/20 09:09:04;;;;;;;7.43;1.50;;;5.50;99.90;;;5.31;83.47;102071.88;5165605;28;20042;-71
2022/01/20 09:11:38;;;;;;;17.25;1.88;;;5.60;99.90;;;5.33;83.55;102077.16;5165561;28;20042;-72
2022/01/20 09:17:01;;;;;;;5.97;1.15;;;5.60;99.90;;;5.34;82.37;102084.13;5165407;28;20053;-71
2022/01/20 09:19:33;;;;;;;7.18;1.58;;;5.60;99.90;;;5.29;82.15;102085.50;5165314;28;20129;-69
2022/01/20 09:22:05;;;;;;;5.55;1.45;;;5.60;99.90;;;5.52;84.07;102090.72;5165243;28;20050;-72
2022/01/20 09:24:38;;;;;;;9.43;1.88;;;5.70;99.90;;;5.79;84.44;102083.22;5164516;28;20065;-72
2022/01/20 09:27:10;;;;;;;7.95;1.48;;;5.90;99.90;;;5.95;82.88;102083.59;5165175;28;20043;-72
2022/01/20 09:29:42;;;;;;;6.63;1.38;;;6.10;99.90;;;5.99;82.59;102077.84;5165578;28;20137;-74
2022/01/20 09:32:17;;;;;;;9.80;1.33;;;6.20;99.90;;;6.15;83.51;102073.03;5165087;28;20050;-76
2022/01/20 09:34:49;;;;;;;11.57;1.88;;;6.30;99.90;;;6.45;83.32;102082.09;5165257;28;20082;-74
2022/01/20 09:37:21;;;;;;;5.25;1.45;;;6.50;99.90;;;6.57;82.65;102078.56;5165227;28;20050;-73
2022/01/20 09:39:54;;;;;;;7.40;1.17;;;6.70;99.90;;;6.48;81.59;102084.91;5165012;28;20505;-71
2022/01/20 09:42:27;;;;;;;8.82;1.92;;;6.80;99.90;;;6.33;80.37;102088.09;5165015;28;20138;-71
2022/01/20 09:44:59;;;;;;;5.95;1.75;;;6.70;99.90;;;6.22;80.56;102085.63;5164514;28;20050;-72
2022/01/20 09:47:32;;;;;;;10.30;1.42;;;6.60;99.90;;;6.21;80.37;102085.50;5165004;28;20052;-71
2022/01/20 09:50:06;;;;;;;7.70;1.25;;;6.50;99.90;;;6.06;79.64;102095.63;5164682;28;20046;-72
2022/01/20 09:52:38;;;;;;;11.25;1.88;;;6.40;99.90;;;5.94;78.87;102106.00;5164606;28;20138;-72
2022/01/20 09:55:11;;;;;;;10.15;1.65;;;6.30;99.90;;;5.89;79.29;102111.59;5164148;28;20051;-71
2022/01/20 09:57:43;;;;;;;5.43;1.25;;;6.20;99.90;;;5.78;79.18;102122.81;5164572;28;20343;-70
2022/01/20 10:00:19;;;;;;;4.38;1.13;;;6.10;99.90;;;5.77;79.23;102116.75;5165024;28;20050;-72
2022/01/20 10:02:57;;;;;;;6.72;1.55;;;6.10;99.90;;;5.72;79.40;102133.59;5164500;28;20062;-73
2022/01/20 10:05:34;;;;;;;9.68;1.67;;;6.00;99.90;;;5.77;79.63;102136.53;5163595;28;20055;-71
2022/01/20 10:08:12;;;;;;;6.32;1.45;;;6.00;99.90;;;5.76;79.58;102146.00;5164119;28;20054;-73
2022/01/20 10:10:48;;;;;;;6.15;1.02;;;6.00;99.90;;;5.73;78.29;102131.13;5164332;28;20470;-73
2022/01/20 10:13:24;;;;;;;7.65;1.95;;;6.00;99.90;;;5.69;78.44;102135.97;5164555;28;20503;-72
2022/01/20 10:16:03;;;;;;;7.68;1.63;;;6.00;99.90;;;5.68;78.03;102134.19;5163491;28;20050;-72
2022/01/20 10:18:48;;;;;;;10.50;1.42;;;6.00;99.90;;;5.58;77.31;102135.16;5164093;28;20139;-70
2022/01/20 10:21:29;;;;;;;4.43;1.23;;;5.90;99.90;;;5.63;76.94;102128.66;5164251;28;20054;-71
2022/01/20 10:24:07;;;;;;;5.53;1.50;;;5.90;99.90;;;5.63;75.93;102139.00;5163647;28;20054;-72
2022/01/20 10:26:40;;;;;;;6.47;1.77;;;5.90;99.90;;;5.75;75.94;102130.38;5163987;28;20464;-72
2022/01/20 10:29:14;;;;;;;5.53;1.00;;;5.90;99.90;;;5.80;75.04;102141.94;5164086;28;20097;-74
2022/01/20 10:31:51;;;;;;;5.47;1.15;;;6.00;99.90;;;5.86;74.56;102139.81;5163705;28;20057;-72
2022/01/20 10:34:30;;;;;;;6.38;1.83;;;6.00;99.90;;;6.11;72.66;102134.81;5163317;28;20409;-74
2022/01/20 10:37:08;;;;;;;7.22;1.02;;;6.20;99.90;;;6.24;72.11;102143.59;5167668;28;20050;-71
2022/01/20 10:39:44;;;;;;;3.95;1.10;;;6.30;99.90;;;6.33;71.79;102147.66;5167974;28;20074;-71
2022/01/20 10:42:20;;;;;;;10.70;2.13;;;6.40;99.90;;;6.43;71.24;102139.75;5167427;28;20051;-71
2022/01/20 10:44:54;;;;;;;10.57;1.23;;;6.50;99.90;;;6.52;70.56;102148.22;5166885;28;20054;-72
2022/01/20 10:47:28;;;;;;;5.70;1.23;;;6.60;99.90;;;6.42;68.48;102158.69;5167003;28;20057;-73
2022/01/20 10:50:13;;;;;;;7.13;1.40;;;6.60;99.90;;;6.37;69.66;102150.56;5167424;28;20124;-72
2022/01/20 10:52:46;;;;;;;3.78;0.90;;;6.60;99.90;;;6.27;69.02;102153.28;5167271;28;20140;-71
2022/01/20 10:55:25;;;;;;;1.20;0.60;;;6.50;99.90;;;6.29;69.82;102156.88;5166984;28;20120;-72
2022/01/20 10:58:11;;;;;;;8.50;1.20;;;6.60;99.90;;;6.23;68.09;102157.34;5166898;28;20074;-72
2022/01/20 11:00:46;;;;;;;4.28;1.00;;;6.50;99.90;;;6.16;69.95;102157.66;5167332;28;20089;-72
2022/01/20 11:03:19;;;;;;;4.53;1.17;;;6.40;99.90;;;6.10;69.54;102154.63;5167384;28;20050;-72
2022/01/20 11:05:54;;;;;;;5.50;1.25;;;6.40;99.90;;;6.12;69.43;102158.22;5166884;28;20053;-72
2022/01/20 11:08:27;;;;;;;5.53;1.25;;;6.40;99.90;;;6.10;69.97;102162.41;5167129;28;20070;-71
2022/01/20 11:11:01;;;;;;;6.68;1.48;;;6.30;99.90;;;6.09;70.00;102157.09;5167463;28;20431;-71
2022/01/20 11:13:34;;;;;;;5.22;1.60;;;6.30;99.90;;;6.04;69.46;102161.94;5167242;28;20145;-71
2022/01/20 11:16:06;;;;;;;6.30;1.23;;;6.30;99.90;;;5.99;69.68;102168.44;5166470;28;20528;-70
2022/01/20 11:18:42;;;;;;;8.63;1.52;;;6.20;99.90;;;5.99;69.14;102169.34;5166823;28;20056;-72
2022/01/20 11:21:25;;;;;;;8.23;1.25;;;6.30;99.90;;;6.03;68.68;102162.72;5167277;28;20054;-71
2022/01/20 11:23:57;;;;;;;6.80;1.20;;;6.20;99.90;;;6.01;68.83;102171.19;5166466;28;20050;-71
2022/01/20 11:26:29;;;;;;;7.93;1.42;;;6.20;99.90;;;5.97;68.93;102167.44;5166777;28;20042;-71
2022/01/20 11:29:02;;;;;;;4.30;1.05;;;6.20;99.90;;;6.07;68.32;102157.00;5166882;28;20046;-71
2022/01/20 11:31:35;;;;;;;3.72;1.10;;;6.30;99.90;;;6.13;68.40;102159.13;5240478;22;20498;-69
2022/01/20 11:34:14;;;;;;;3.17;1.00;;;6.40;99.90;;;6.07;68.67;102162.19;5184231;28;20083;-68
2022/01/20 11:36:49;;;;;;;5.35;0.80;;;6.30;99.90;;;6.04;68.58;102146.41;5186252;28;20387;-68